createdAt,value
2023-01-28T00:00:09.654Z,76.27
2023-01-28T00:02:37.095Z,76.02
2023-01-28T00:05:04.993Z,75.39
2023-01-28T00:07:32.306Z,74.33
2023-01-28T00:09:59.634Z,73.95
2023-01-28T00:12:27.178Z,73.98
2023-01-28T00:14:54.504Z,72.05
2023-01-28T00:17:21.896Z,72.25
2023-01-28T00:19:49.322Z,72.78
2023-01-28T00:22:16.695Z,72.25
2023-01-28T00:24:44.648Z,72.59
2023-01-28T00:27:12.754Z,72.85
2023-01-28T00:29:41.235Z,71.26
2023-01-28T00:32:08.628Z,72.00
2023-01-28T00:34:36.062Z,72.06
2023-01-28T00:37:07.479Z,72.42
2023-01-28T00:39:34.948Z,72.26
2023-01-28T00:42:02.257Z,71.85
2023-01-28T00:44:29.638Z,72.17
2023-01-28T00:46:57.244Z,71.97
2023-01-28T00:49:43.061Z,70.92
2023-01-28T00:52:10.358Z,71.01
2023-01-28T00:54:37.959Z,72.01
2023-01-28T00:57:05.300Z,70.84
2023-01-28T00:59:32.649Z,71.70
2023-01-28T01:02:12.314Z,70.67
2023-01-28T01:04:40.985Z,70.64
2023-01-28T01:07:08.335Z,69.27
2023-01-28T01:09:35.689Z,69.19
2023-01-28T01:12:04.007Z,68.94
2023-01-28T01:14:31.508Z,69.11
2023-01-28T01:16:58.856Z,70.12
2023-01-28T01:19:28.349Z,68.80
2023-01-28T01:21:57.046Z,69.62
2023-01-28T01:24:24.456Z,69.57
2023-01-28T01:26:52.195Z,69.63
2023-01-28T01:29:19.483Z,69.79
2023-01-28T01:31:46.836Z,70.17
2023-01-28T01:34:14.872Z,70.21
2023-01-28T01:36:44.023Z,70.54
2023-01-28T01:39:14.546Z,70.69
2023-01-28T01:41:41.899Z,70.64
2023-01-28T01:44:47.150Z,70.70
2023-01-28T01:47:16.876Z,69.70
2023-01-28T01:49:44.832Z,69.55
2023-01-28T01:52:19.596Z,68.86
2023-01-28T01:54:50.628Z,69.53
2023-01-28T01:57:24.403Z,69.91
2023-01-28T01:59:52.191Z,70.09
2023-01-28T02:02:19.738Z,70.84
2023-01-28T02:04:47.109Z,70.99
2023-01-28T02:07:19.537Z,71.73
2023-01-28T02:09:47.186Z,71.11
2023-01-28T02:12:20.729Z,70.36
2023-01-28T02:15:10.118Z,70.14
2023-01-28T02:17:38.439Z,69.54
2023-01-28T02:20:12.708Z,71.67
2023-01-28T02:23:09.159Z,71.03
2023-01-28T02:26:04.898Z,69.76
2023-01-28T02:28:42.175Z,70.92
2023-01-28T02:31:22.200Z,71.05
2023-01-28T02:34:19.734Z,71.81
2023-01-28T02:36:51.351Z,72.08
2023-01-28T02:39:27.098Z,71.64
2023-01-28T02:42:02.066Z,72.20
2023-01-28T02:44:29.539Z,71.38
2023-01-28T02:47:15.519Z,72.28
2023-01-28T02:49:50.004Z,72.77
2023-01-28T02:52:46.431Z,71.82
2023-01-28T02:55:32.555Z,71.65
2023-01-28T02:58:11.796Z,74.80
2023-01-28T03:01:17.009Z,74.50
2023-01-28T03:04:02.948Z,76.59
2023-01-28T03:06:39.727Z,75.46
2023-01-28T03:09:24.225Z,76.09
2023-01-28T03:12:51.237Z,75.77
2023-01-28T03:15:44.630Z,77.55
2023-01-28T03:18:34.816Z,79.46
2023-01-28T03:21:33.469Z,79.68
2023-01-28T03:24:51.059Z,79.38
2023-01-28T03:27:46.211Z,79.66
2023-01-28T03:30:46.786Z,78.91
2023-01-28T03:33:43.840Z,78.08
2023-01-28T03:36:30.402Z,77.37
2023-01-28T03:38:58.646Z,77.56
2023-01-28T03:41:27.039Z,77.56
2023-01-28T03:43:56.547Z,77.08
2023-01-28T03:46:24.342Z,75.83
2023-01-28T03:48:52.012Z,76.95
2023-01-28T03:51:19.858Z,77.12
2023-01-28T03:53:47.812Z,77.71
2023-01-28T03:56:18.495Z,78.70
2023-01-28T03:58:52.974Z,79.16
2023-01-28T04:01:21.378Z,80.05
2023-01-28T04:03:49.341Z,81.02
2023-01-28T04:06:23.144Z,81.67
2023-01-28T04:08:53.572Z,81.28
2023-01-28T04:11:32.200Z,80.46
2023-01-28T04:14:02.744Z,80.65
2023-01-28T04:16:42.786Z,80.24
2023-01-28T04:19:12.380Z,79.22
2023-01-28T04:21:40.121Z,79.03
2023-01-28T04:24:08.031Z,78.50
2023-01-28T04:26:36.279Z,78.94
2023-01-28T04:29:04.993Z,78.69
2023-01-28T04:31:34.988Z,78.63
2023-01-28T04:34:21.144Z,78.55
2023-01-28T04:36:54.861Z,78.52
2023-01-28T04:39:42.554Z,77.65
2023-01-28T04:42:39.557Z,77.33
2023-01-28T04:45:12.044Z,76.29
2023-01-28T04:47:59.837Z,75.77
2023-01-28T04:50:45.846Z,75.58
2023-01-28T04:53:27.298Z,75.60
2023-01-28T04:55:58.892Z,75.22
2023-01-28T04:58:28.812Z,75.76
2023-01-28T05:01:01.121Z,76.42
2023-01-28T05:03:28.934Z,79.03
2023-01-28T05:05:56.541Z,79.37
2023-01-28T05:08:39.827Z,78.83
2023-01-28T05:11:07.514Z,77.52
2023-01-28T05:13:35.193Z,76.73
2023-01-28T05:16:04.385Z,76.58
2023-01-28T05:18:31.936Z,76.60
2023-01-28T05:21:09.811Z,76.60
2023-01-28T05:23:39.896Z,76.62
2023-01-28T05:26:07.388Z,76.53
2023-01-28T05:28:53.531Z,76.62
2023-01-28T05:31:21.062Z,76.04
2023-01-28T05:33:48.712Z,75.62
2023-01-28T05:36:17.169Z,76.48
2023-01-28T05:38:44.756Z,78.29
2023-01-28T05:41:12.769Z,78.41
2023-01-28T05:43:41.556Z,78.93
2023-01-28T05:46:20.964Z,78.55
2023-01-28T05:49:18.712Z,79.15
2023-01-28T05:51:56.535Z,80.06
2023-01-28T05:54:25.133Z,81.53
2023-01-28T05:56:52.747Z,82.71
2023-01-28T05:59:20.244Z,84.15
2023-01-28T06:01:49.990Z,84.33
2023-01-28T06:04:19.097Z,84.61
2023-01-28T06:06:47.760Z,84.83
2023-01-28T06:09:16.057Z,84.52
2023-01-28T06:11:44.594Z,84.44
2023-01-28T06:14:12.463Z,85.67
2023-01-28T06:16:58.540Z,86.07
2023-01-28T06:19:46.294Z,86.15
2023-01-28T06:22:13.788Z,87.29
2023-01-28T06:24:41.420Z,87.65
2023-01-28T06:27:08.913Z,87.59
2023-01-28T06:29:36.532Z,87.51
2023-01-28T06:32:04.369Z,87.90
2023-01-28T06:34:32.424Z,88.69
2023-01-28T06:36:59.807Z,88.44
2023-01-28T06:39:29.338Z,87.62
2023-01-28T06:41:56.789Z,87.32
2023-01-28T06:44:24.680Z,87.61
2023-01-28T06:46:52.153Z,88.30
2023-01-28T06:49:20.690Z,87.33
2023-01-28T06:51:48.442Z,87.21
2023-01-28T06:54:16.407Z,88.21
2023-01-28T06:56:44.344Z,87.02
2023-01-28T06:59:11.952Z,88.55
2023-01-28T07:01:39.394Z,88.03
2023-01-28T07:04:07.285Z,87.19
2023-01-28T07:06:34.753Z,86.94
2023-01-28T07:09:02.356Z,88.08
2023-01-28T07:11:29.831Z,88.70
2023-01-28T07:13:57.304Z,87.96
2023-01-28T07:16:24.940Z,86.43
2023-01-28T07:18:52.504Z,86.52
2023-01-28T07:21:19.916Z,86.29
2023-01-28T07:23:47.387Z,85.32
2023-01-28T07:26:15.687Z,84.25
2023-01-28T07:28:43.079Z,80.90
2023-01-28T07:31:10.717Z,77.05
2023-01-28T07:33:38.282Z,71.30
2023-01-28T07:36:06.179Z,67.51
2023-01-28T07:38:33.817Z,64.89
2023-01-28T07:41:01.169Z,63.79
2023-01-28T07:43:28.484Z,61.91
2023-01-28T07:45:55.761Z,61.96
2023-01-28T07:48:23.140Z,60.76
2023-01-28T07:50:51.850Z,58.62
2023-01-28T07:53:20.383Z,58.72
2023-01-28T07:55:47.691Z,59.55
2023-01-28T07:58:15.056Z,57.76
2023-01-28T08:00:42.523Z,57.55
2023-01-28T08:03:17.129Z,60.20
2023-01-28T08:05:47.028Z,61.58
2023-01-28T08:08:15.096Z,63.84
2023-01-28T08:10:44.047Z,61.74
2023-01-28T08:13:12.757Z,59.83
2023-01-28T08:15:40.976Z,58.17
2023-01-28T08:18:10.104Z,58.79
2023-01-28T08:20:37.550Z,57.06
2023-01-28T08:23:15.660Z,56.63
2023-01-28T08:25:43.925Z,52.99
2023-01-28T08:28:11.988Z,53.01
2023-01-28T08:30:39.974Z,55.34
2023-01-28T08:33:09.309Z,55.40
2023-01-28T08:35:37.218Z,55.54
2023-01-28T08:38:05.881Z,51.85
2023-01-28T08:40:34.613Z,53.46
2023-01-28T08:43:02.616Z,54.58
2023-01-28T08:45:30.582Z,56.92
2023-01-28T08:47:59.323Z,59.51
2023-01-28T08:50:29.691Z,58.81
2023-01-28T08:52:58.935Z,59.73
2023-01-28T08:55:27.568Z,60.77
2023-01-28T08:57:57.515Z,61.56
2023-01-28T09:00:25.970Z,62.64
2023-01-28T09:02:54.012Z,62.25
2023-01-28T09:05:21.634Z,60.14
2023-01-28T09:07:49.109Z,56.99
2023-01-28T09:10:17.118Z,55.01
2023-01-28T09:12:44.698Z,53.71
2023-01-28T09:15:12.564Z,50.89
2023-01-28T09:17:40.590Z,50.49
2023-01-28T09:20:08.828Z,49.92
2023-01-28T09:22:36.449Z,48.19
2023-01-28T09:25:04.134Z,48.04
2023-01-28T09:27:31.943Z,46.28
2023-01-28T09:30:01.755Z,44.20
2023-01-28T09:32:29.178Z,43.15
2023-01-28T09:34:56.640Z,40.33
2023-01-28T09:37:24.237Z,41.56
2023-01-28T09:39:51.595Z,42.44
2023-01-28T09:42:39.581Z,43.03
2023-01-28T09:45:16.352Z,40.95
2023-01-28T09:47:53.759Z,39.22
2023-01-28T09:50:31.728Z,39.74
2023-01-28T09:53:27.715Z,38.87
2023-01-28T09:56:03.982Z,39.75
2023-01-28T09:58:31.905Z,39.37
2023-01-28T10:01:05.324Z,40.64
2023-01-28T10:03:50.170Z,42.40
2023-01-28T10:06:24.443Z,44.47
2023-01-28T10:09:10.447Z,42.43
2023-01-28T10:12:28.102Z,43.13
2023-01-28T10:15:04.445Z,44.78
2023-01-28T10:17:47.670Z,45.83
2023-01-28T10:20:36.368Z,46.88
2023-01-28T10:23:17.036Z,47.27
2023-01-28T10:25:48.372Z,47.06
2023-01-28T10:28:20.023Z,47.03
2023-01-28T10:30:48.291Z,46.55
2023-01-28T10:33:28.061Z,47.47
2023-01-28T10:35:56.652Z,47.30
2023-01-28T10:38:25.865Z,46.79
2023-01-28T10:40:58.362Z,46.42
2023-01-28T10:43:29.868Z,46.95
2023-01-28T10:46:23.921Z,48.64
2023-01-28T10:48:56.983Z,49.16
2023-01-28T10:51:36.989Z,48.60
2023-01-28T10:54:19.322Z,47.59
2023-01-28T10:56:48.364Z,47.15
2023-01-28T10:59:36.927Z,47.08
2023-01-28T11:02:20.051Z,47.98
2023-01-28T11:04:47.407Z,46.99
2023-01-28T11:07:20.440Z,48.35
2023-01-28T11:09:50.674Z,46.95
2023-01-28T11:12:27.594Z,48.20
2023-01-28T11:15:03.289Z,47.56
2023-01-28T11:17:36.012Z,47.34
2023-01-28T11:20:18.542Z,47.96
2023-01-28T11:22:46.496Z,47.26
2023-01-28T11:25:20.104Z,47.03
2023-01-28T11:27:52.724Z,48.48
2023-01-28T11:30:35.895Z,46.83
2023-01-28T11:33:06.892Z,47.46
2023-01-28T11:35:34.423Z,47.81
2023-01-28T11:38:01.853Z,46.00
2023-01-28T11:40:29.656Z,45.76
2023-01-28T11:42:58.248Z,45.65
2023-01-28T11:45:44.239Z,45.90
2023-01-28T11:48:35.151Z,46.09
2023-01-28T11:51:55.338Z,45.55
2023-01-28T11:54:28.821Z,46.15
2023-01-28T11:57:26.740Z,45.13
2023-01-28T12:00:12.248Z,43.35
2023-01-28T12:02:51.297Z,42.98
2023-01-28T12:05:49.747Z,42.74
2023-01-28T12:08:34.608Z,42.52
2023-01-28T12:11:10.947Z,43.22
2023-01-28T12:14:14.759Z,42.91
2023-01-28T12:17:11.094Z,40.77
2023-01-28T12:19:41.211Z,40.12
2023-01-28T12:22:32.891Z,40.71
2023-01-28T12:25:33.448Z,44.12
2023-01-28T12:28:22.119Z,44.07
2023-01-28T12:31:48.541Z,44.54
2023-01-28T12:34:34.515Z,43.63
2023-01-28T12:37:17.184Z,43.75
2023-01-28T12:39:50.576Z,43.10
2023-01-28T12:42:36.110Z,42.47
2023-01-28T12:45:24.663Z,43.83
2023-01-28T12:48:01.639Z,43.36
2023-01-28T12:50:40.000Z,43.19
2023-01-28T12:53:26.853Z,45.08
2023-01-28T12:56:09.263Z,44.50
2023-01-28T12:59:06.231Z,45.89
2023-01-28T13:02:12.244Z,44.39
2023-01-28T13:04:57.155Z,44.71
2023-01-28T13:07:57.368Z,46.10
2023-01-28T13:10:29.164Z,42.90
2023-01-28T13:12:59.172Z,43.30
2023-01-28T13:15:26.674Z,43.57
2023-01-28T13:18:35.951Z,44.25
2023-01-28T13:21:06.111Z,43.68
2023-01-28T13:23:38.714Z,43.38
2023-01-28T13:26:18.480Z,44.14
2023-01-28T13:28:47.434Z,43.23
2023-01-28T13:31:21.217Z,44.72
2023-01-28T13:34:02.711Z,43.03
2023-01-28T13:36:38.187Z,44.17
2023-01-28T13:39:14.290Z,44.26
2023-01-28T13:41:50.580Z,44.59
2023-01-28T13:44:33.004Z,45.26
2023-01-28T13:47:21.889Z,44.51
2023-01-28T13:49:55.785Z,46.40
2023-01-28T13:52:27.591Z,45.36
2023-01-28T13:55:42.891Z,45.67
2023-01-28T13:58:36.820Z,46.28
2023-01-28T14:01:04.121Z,46.27
2023-01-28T14:03:46.413Z,45.11
2023-01-28T14:06:38.251Z,45.08
2023-01-28T14:09:20.284Z,44.60
2023-01-28T14:11:53.872Z,44.34
2023-01-28T14:14:27.342Z,44.42
2023-01-28T14:17:07.401Z,44.79
2023-01-28T14:19:38.574Z,45.66
2023-01-28T14:22:10.686Z,44.86
2023-01-28T14:24:39.699Z,44.56
2023-01-28T14:27:32.727Z,45.78
2023-01-28T14:30:29.973Z,46.19
2023-01-28T14:32:57.864Z,45.77
2023-01-28T14:35:34.187Z,44.29
2023-01-28T14:38:09.284Z,45.76
2023-01-28T14:40:40.236Z,46.73
2023-01-28T14:43:13.716Z,44.61
2023-01-28T14:45:59.883Z,44.68
2023-01-28T14:48:49.431Z,45.09
2023-01-28T14:51:19.658Z,45.82
2023-01-28T14:54:05.843Z,45.37
2023-01-28T14:57:08.597Z,47.76
2023-01-28T14:59:49.639Z,47.67
2023-01-28T15:02:23.916Z,47.75
2023-01-28T15:04:53.008Z,46.73
2023-01-28T15:07:27.064Z,47.55
2023-01-28T15:10:05.940Z,46.69
2023-01-28T15:12:38.995Z,46.95
2023-01-28T15:15:20.141Z,46.57
2023-01-28T15:17:48.882Z,47.15
2023-01-28T15:20:19.343Z,47.07
2023-01-28T15:22:47.023Z,46.99
2023-01-28T15:25:26.537Z,48.44
2023-01-28T15:27:58.877Z,48.26
2023-01-28T15:30:29.891Z,48.11
2023-01-28T15:33:03.630Z,49.02
2023-01-28T15:35:32.694Z,48.62
2023-01-28T15:38:00.119Z,47.45
2023-01-28T15:40:30.232Z,47.38
2023-01-28T15:42:58.951Z,47.44
2023-01-28T15:45:28.392Z,47.46
2023-01-28T15:48:05.712Z,47.82
2023-01-28T15:50:33.129Z,48.96
2023-01-28T15:53:00.877Z,50.21
2023-01-28T15:55:35.520Z,51.53
2023-01-28T15:58:30.305Z,52.04
2023-01-28T16:01:13.771Z,53.50
2023-01-28T16:03:44.653Z,54.47
2023-01-28T16:06:17.494Z,56.14
2023-01-28T16:08:51.823Z,56.38
2023-01-28T16:11:26.315Z,57.58
2023-01-28T16:13:54.453Z,58.25
2023-01-28T16:16:29.205Z,58.42
2023-01-28T16:18:56.665Z,59.31
2023-01-28T16:21:38.019Z,59.88
2023-01-28T16:24:23.869Z,59.93
2023-01-28T16:26:58.494Z,59.99
2023-01-28T16:29:27.708Z,59.88
2023-01-28T16:31:57.183Z,60.08
2023-01-28T16:34:27.289Z,61.56
2023-01-28T16:36:59.776Z,61.37
2023-01-28T16:39:27.270Z,61.52
2023-01-28T16:41:57.027Z,61.54
2023-01-28T16:44:24.438Z,61.31
2023-01-28T16:46:51.833Z,61.60
2023-01-28T16:49:19.182Z,61.54
2023-01-28T16:51:46.552Z,61.48
2023-01-28T16:54:16.607Z,61.51
2023-01-28T16:56:46.520Z,61.80
2023-01-28T16:59:16.318Z,62.22
2023-01-28T17:01:44.919Z,61.50
2023-01-28T17:04:13.262Z,61.12
2023-01-28T17:06:45.236Z,61.85
2023-01-28T17:09:13.995Z,62.03
2023-01-28T17:11:41.934Z,61.94
2023-01-28T17:14:11.018Z,62.72
2023-01-28T17:16:38.991Z,63.25
2023-01-28T17:19:06.450Z,63.26
2023-01-28T17:21:34.134Z,65.40
2023-01-28T17:24:02.021Z,67.48
2023-01-28T17:26:29.444Z,69.49
2023-01-28T17:28:57.052Z,69.13
2023-01-28T17:31:26.335Z,69.62
2023-01-28T17:33:55.412Z,69.49
2023-01-28T17:36:23.929Z,69.67
2023-01-28T17:38:51.957Z,69.30
2023-01-28T17:41:19.594Z,69.06
2023-01-28T17:43:55.180Z,68.84
2023-01-28T17:46:25.067Z,67.85
2023-01-28T17:48:52.917Z,68.98
2023-01-28T17:51:20.453Z,68.38
2023-01-28T17:53:52.812Z,67.61
2023-01-28T17:56:26.364Z,67.69
2023-01-28T17:58:58.833Z,68.08
2023-01-28T18:01:27.056Z,68.17
2023-01-28T18:03:55.766Z,70.00
2023-01-28T18:06:23.322Z,68.44
2023-01-28T18:08:50.876Z,69.70
2023-01-28T18:11:20.043Z,69.93
2023-01-28T18:13:47.353Z,68.62
2023-01-28T18:16:18.099Z,69.13
2023-01-28T18:18:46.344Z,68.58
2023-01-28T18:21:21.768Z,69.02
2023-01-28T18:23:52.340Z,69.24
2023-01-28T18:26:19.749Z,70.48
2023-01-28T18:28:48.383Z,71.45
2023-01-28T18:31:15.994Z,72.10
2023-01-28T18:33:43.530Z,72.86
2023-01-28T18:36:11.215Z,72.17
2023-01-28T18:38:39.823Z,73.25
2023-01-28T18:41:07.159Z,72.91
2023-01-28T18:43:35.531Z,72.93
2023-01-28T18:46:13.715Z,73.70
2023-01-28T18:48:41.201Z,74.14
2023-01-28T18:51:28.462Z,74.60
2023-01-28T18:54:03.095Z,75.22
2023-01-28T18:56:31.730Z,75.70
2023-01-28T18:59:00.977Z,76.48
2023-01-28T19:01:29.468Z,75.18
2023-01-28T19:03:58.029Z,75.11
2023-01-28T19:06:27.581Z,74.30
2023-01-28T19:09:00.831Z,74.47
2023-01-28T19:11:30.078Z,73.80
2023-01-28T19:13:57.831Z,72.90
2023-01-28T19:16:25.705Z,72.95
2023-01-28T19:19:00.558Z,73.04
2023-01-28T19:21:29.946Z,73.80
2023-01-28T19:24:03.566Z,74.79
2023-01-28T19:26:31.419Z,74.83
2023-01-28T19:28:59.449Z,74.91
2023-01-28T19:31:29.125Z,75.85
2023-01-28T19:34:00.039Z,75.68
2023-01-28T19:36:30.272Z,75.61
2023-01-28T19:39:03.133Z,77.37
2023-01-28T19:41:30.927Z,76.47
2023-01-28T19:43:58.884Z,77.77
2023-01-28T19:46:26.908Z,76.68
2023-01-28T19:48:54.895Z,77.80
2023-01-28T19:51:22.832Z,78.71
2023-01-28T19:53:51.987Z,77.30
2023-01-28T19:56:21.143Z,78.99
2023-01-28T19:58:48.884Z,78.13
2023-01-28T20:01:18.279Z,78.69
2023-01-28T20:03:46.023Z,79.15
2023-01-28T20:06:15.976Z,79.22
2023-01-28T20:08:44.219Z,80.67
2023-01-28T20:11:16.046Z,79.70
2023-01-28T20:13:44.353Z,79.22
2023-01-28T20:16:29.247Z,79.22
2023-01-28T20:18:59.630Z,79.84
2023-01-28T20:21:27.777Z,79.00
2023-01-28T20:23:57.335Z,80.59
2023-01-28T20:26:28.290Z,81.21
2023-01-28T20:28:55.765Z,80.40
2023-01-28T20:31:23.209Z,80.17
2023-01-28T20:33:50.603Z,78.80
2023-01-28T20:36:17.989Z,79.05
2023-01-28T20:38:47.299Z,80.98
2023-01-28T20:41:17.080Z,82.76
2023-01-28T20:43:45.416Z,83.82
2023-01-28T20:46:13.864Z,84.16
2023-01-28T20:48:41.398Z,83.48
2023-01-28T20:51:11.601Z,83.42
2023-01-28T20:53:39.961Z,82.59
2023-01-28T20:56:09.192Z,83.24
2023-01-28T20:58:36.759Z,82.66
2023-01-28T21:01:04.610Z,81.89
2023-01-28T21:03:32.742Z,81.82
2023-01-28T21:06:00.815Z,82.63
2023-01-28T21:08:28.177Z,82.12
2023-01-28T21:10:56.242Z,81.96
2023-01-28T21:13:23.615Z,81.80
2023-01-28T21:15:53.017Z,81.32
2023-01-28T21:18:20.726Z,81.92
2023-01-28T21:20:48.677Z,81.91
2023-01-28T21:23:16.215Z,82.04
2023-01-28T21:25:46.730Z,82.99
2023-01-28T21:28:14.216Z,83.28
2023-01-28T21:30:42.298Z,83.98
2023-01-28T21:33:09.936Z,83.38
2023-01-28T21:35:42.181Z,83.96
2023-01-28T21:38:10.692Z,82.07
2023-01-28T21:40:38.817Z,82.53
2023-01-28T21:43:06.160Z,82.75
2023-01-28T21:45:33.483Z,82.94
2023-01-28T21:48:00.787Z,83.28
2023-01-28T21:50:28.122Z,82.84
2023-01-28T21:52:55.491Z,83.20
2023-01-28T21:55:22.765Z,83.99
2023-01-28T21:58:10.066Z,84.49
2023-01-28T22:00:37.735Z,84.86
2023-01-28T22:03:05.147Z,84.26
2023-01-28T22:05:32.480Z,84.32
2023-01-28T22:07:59.800Z,83.94
2023-01-28T22:10:27.080Z,84.48
2023-01-28T22:12:54.407Z,83.09
2023-01-28T22:15:21.715Z,82.87
2023-01-28T22:17:49.121Z,82.38
2023-01-28T22:20:16.895Z,81.96
2023-01-28T22:22:44.440Z,81.38
2023-01-28T22:25:11.727Z,81.54
2023-01-28T22:27:39.026Z,79.88
2023-01-28T22:30:07.021Z,79.80
2023-01-28T22:32:34.523Z,78.62
2023-01-28T22:35:02.991Z,78.92
2023-01-28T22:37:30.395Z,78.41
2023-01-28T22:39:57.663Z,78.17
2023-01-28T22:42:24.987Z,78.19
2023-01-28T22:44:52.295Z,77.88
2023-01-28T22:47:19.647Z,78.18
2023-01-28T22:49:46.941Z,78.76
2023-01-28T22:52:14.345Z,79.93
2023-01-28T22:54:41.687Z,80.96
2023-01-28T22:57:09.133Z,82.11
2023-01-28T22:59:36.522Z,81.56
2023-01-28T23:02:03.966Z,81.82
2023-01-28T23:04:31.293Z,82.35
2023-01-28T23:06:58.699Z,83.05
2023-01-28T23:09:26.362Z,83.79
2023-01-28T23:11:53.743Z,83.30
2023-01-28T23:14:39.668Z,82.34
2023-01-28T23:17:27.657Z,81.82
2023-01-28T23:20:13.853Z,81.81
2023-01-28T23:22:59.740Z,79.13
2023-01-28T23:25:27.113Z,78.01
2023-01-28T23:27:54.467Z,79.61
2023-01-28T23:30:25.281Z,81.27
2023-01-28T23:32:56.591Z,83.57
2023-01-28T23:35:25.980Z,84.37
2023-01-28T23:37:54.375Z,84.59
2023-01-28T23:40:24.596Z,84.14
2023-01-28T23:42:52.578Z,84.21
2023-01-28T23:45:20.530Z,84.54
2023-01-28T23:47:48.730Z,84.80
2023-01-28T23:50:16.642Z,84.58
2023-01-28T23:52:44.275Z,84.50
2023-01-28T23:55:11.607Z,84.36
2023-01-28T23:57:38.968Z,84.59
